Snoqualmie River: Middle Fork station

back to: Snoqualmie river
Middle Fork station Summary - (NOAA Hydrograph: TANW1)
Latest reading:
Mon06/25 09:15 am 3.73 ft 1405 cfs (-60/hr)
Past 24hr max:
Mon06/25 05:00 am 3.78 ft 1442 cfs
Forecasted crests: (published Mon 06/25/18 09:06 am)
Fri06/29 11:00 am 2.16 ft 497 cfs
Tue07/03 05:00 am 1.47 ft 264 cfs
Wed07/04 05:00 am 1.48 ft 266 cfs

Middle Fork station Details

Latest Readings

Last 100 Readings:
Mon06/25 09:15 am 3.73 ft 1405 cfs
Mon06/25 09:00 am 3.75 ft 1420 cfs
Mon06/25 08:45 am 3.77 ft 1434 cfs
Mon06/25 08:30 am 3.75 ft 1420 cfs
Mon06/25 08:15 am 3.76 ft 1427 cfs
Mon06/25 08:00 am 3.75 ft 1420 cfs
Mon06/25 07:45 am 3.74 ft 1413 cfs
Mon06/25 07:30 am 3.77 ft 1434 cfs
Mon06/25 07:15 am 3.76 ft 1427 cfs
Mon06/25 07:00 am 3.75 ft 1420 cfs
Mon06/25 06:45 am 3.75 ft 1420 cfs
Mon06/25 06:30 am 3.73 ft 1405 cfs
Mon06/25 06:15 am 3.75 ft 1420 cfs
Mon06/25 06:00 am 3.76 ft 1427 cfs
Mon06/25 05:45 am 3.75 ft 1420 cfs
Mon06/25 05:30 am 3.74 ft 1413 cfs
Mon06/25 05:15 am 3.75 ft 1420 cfs
Mon06/25 05:00 am 3.78 ft 1442 cfs
Mon06/25 04:45 am 3.73 ft 1405 cfs
Mon06/25 04:30 am 3.72 ft 1398 cfs
Mon06/25 04:15 am 3.72 ft 1398 cfs
Mon06/25 04:00 am 3.72 ft 1398 cfs
Mon06/25 03:45 am 3.72 ft 1398 cfs
Mon06/25 03:30 am 3.71 ft 1391 cfs
Mon06/25 03:15 am 3.69 ft 1377 cfs
Mon06/25 03:00 am 3.7 ft 1384 cfs
Mon06/25 02:45 am 3.68 ft 1370 cfs
Mon06/25 02:30 am 3.68 ft 1370 cfs
Mon06/25 02:15 am 3.67 ft 1363 cfs
Mon06/25 02:00 am 3.69 ft 1377 cfs
Mon06/25 01:45 am 3.64 ft 1342 cfs
Mon06/25 01:30 am 3.63 ft 1335 cfs
Mon06/25 01:15 am 3.59 ft 1308 cfs
Mon06/25 01:00 am 3.58 ft 1301 cfs
Mon06/25 12:45 am 3.58 ft 1301 cfs
Mon06/25 12:30 am 3.56 ft 1287 cfs
Mon06/25 12:15 am 3.55 ft 1281 cfs
Mon06/25 12:00 am 3.53 ft 1267 cfs
Sun06/24 11:45 pm 3.53 ft 1267 cfs
Sun06/24 11:30 pm 3.48 ft 1234 cfs
Sun06/24 11:15 pm 3.5 ft 1247 cfs
Sun06/24 11:00 pm 3.46 ft 1221 cfs
Sun06/24 10:45 pm 3.46 ft 1221 cfs
Sun06/24 10:30 pm 3.41 ft 1189 cfs
Sun06/24 10:15 pm 3.42 ft 1195 cfs
Sun06/24 10:00 pm 3.4 ft 1182 cfs
Sun06/24 09:45 pm 3.36 ft 1154 cfs
Sun06/24 09:30 pm 3.34 ft 1140 cfs
Sun06/24 09:15 pm 3.36 ft 1154 cfs
Sun06/24 09:00 pm 3.32 ft 1126 cfs
Sun06/24 08:45 pm 3.32 ft 1126 cfs
Sun06/24 08:30 pm 3.29 ft 1105 cfs
Sun06/24 08:15 pm 3.3 ft 1112 cfs
Sun06/24 08:00 pm 3.27 ft 1092 cfs
Sun06/24 07:45 pm 3.3 ft 1112 cfs
Sun06/24 07:30 pm 3.27 ft 1092 cfs
Sun06/24 07:15 pm 3.29 ft 1105 cfs
Sun06/24 07:00 pm 3.26 ft 1085 cfs
Sun06/24 06:45 pm 3.26 ft 1085 cfs
Sun06/24 06:30 pm 3.26 ft 1085 cfs
Sun06/24 06:15 pm 3.26 ft 1085 cfs
Sun06/24 06:00 pm 3.23 ft 1065 cfs
Sun06/24 05:45 pm 3.24 ft 1071 cfs
Sun06/24 05:30 pm 3.26 ft 1085 cfs
Sun06/24 05:15 pm 3.25 ft 1078 cfs
Sun06/24 05:00 pm 3.29 ft 1105 cfs
Sun06/24 04:47 pm 3.26 ft 1085 cfs
Sun06/24 04:45 pm 3.26 ft 1085 cfs
Sun06/24 04:30 pm 3.26 ft 1085 cfs
Sun06/24 04:15 pm 3.27 ft 1092 cfs
Sun06/24 04:00 pm 3.26 ft 1085 cfs
Sun06/24 03:45 pm 3.28 ft 1098 cfs
Sun06/24 03:30 pm 3.28 ft 1098 cfs
Sun06/24 03:15 pm 3.27 ft 1092 cfs
Sun06/24 03:00 pm 3.27 ft 1092 cfs
Sun06/24 02:45 pm 3.31 ft 1119 cfs
Sun06/24 02:30 pm 3.28 ft 1098 cfs
Sun06/24 02:15 pm 3.32 ft 1126 cfs
Sun06/24 02:00 pm 3.29 ft 1105 cfs
Sun06/24 01:45 pm 3.31 ft 1119 cfs
Sun06/24 01:30 pm 3.31 ft 1119 cfs
Sun06/24 01:15 pm 3.31 ft 1119 cfs
Sun06/24 01:00 pm 3.31 ft 1119 cfs
Sun06/24 12:45 pm 3.33 ft 1133 cfs
Sun06/24 12:30 pm 3.33 ft 1133 cfs
Sun06/24 12:15 pm 3.36 ft 1154 cfs
Sun06/24 12:00 pm 3.31 ft 1119 cfs
Sun06/24 11:45 am 3.33 ft 1133 cfs
Sun06/24 11:30 am 3.37 ft 1161 cfs
Sun06/24 11:15 am 3.36 ft 1154 cfs
Sun06/24 11:00 am 3.35 ft 1147 cfs
Sun06/24 10:45 am 3.34 ft 1140 cfs
Sun06/24 10:30 am 3.38 ft 1168 cfs
Sun06/24 10:15 am 3.39 ft 1175 cfs
Sun06/24 10:00 am 3.36 ft 1154 cfs
Sun06/24 09:45 am 3.37 ft 1161 cfs
Sun06/24 09:30 am 3.37 ft 1161 cfs
Sun06/24 09:15 am 3.37 ft 1161 cfs
Sun06/24 09:00 am 3.37 ft 1161 cfs
Sun06/24 08:45 am 3.35 ft 1147 cfs

Latest Forecasts

Currently Forecasted Readings:
Mon06/25 11:00 am 3.75 ft 1422 cfs
Mon06/25 05:00 pm 3.66 ft 1356 cfs
Mon06/25 11:00 pm 3.54 ft 1273 cfs
Tue06/26 05:00 am 3.35 ft 1146 cfs
Tue06/26 11:00 am 3.16 ft 1017 cfs
Tue06/26 05:00 pm 2.92 ft 867 cfs
Tue06/26 11:00 pm 2.75 ft 777 cfs
Wed06/27 05:00 am 2.63 ft 711 cfs
Wed06/27 11:00 am 2.51 ft 652 cfs
Wed06/27 05:00 pm 2.4 ft 600 cfs
Wed06/27 11:00 pm 2.33 ft 570 cfs
Thu06/28 05:00 am 2.3 ft 552 cfs
Thu06/28 11:00 am 2.23 ft 523 cfs
Thu06/28 05:00 pm 2.14 ft 488 cfs
Thu06/28 11:00 pm 2.1 ft 470 cfs
Fri06/29 05:00 am 2.15 ft 490 cfs
Fri06/29 11:00 am 2.16 ft 497 cfs
Fri06/29 05:00 pm 2.1 ft 473 cfs
Fri06/29 11:00 pm 2.03 ft 446 cfs
Sat06/30 05:00 am 1.97 ft 420 cfs
Sat06/30 11:00 am 1.89 ft 393 cfs
Sat06/30 05:00 pm 1.82 ft 368 cfs
Sat06/30 11:00 pm 1.77 ft 352 cfs
Sun07/01 05:00 am 1.72 ft 338 cfs
Sun07/01 11:00 am 1.68 ft 323 cfs
Sun07/01 05:00 pm 1.63 ft 308 cfs
Sun07/01 11:00 pm 1.59 ft 297 cfs
Mon07/02 05:00 am 1.55 ft 286 cfs
Mon07/02 11:00 am 1.5 ft 273 cfs
Mon07/02 05:00 pm 1.48 ft 266 cfs
Mon07/02 11:00 pm 1.47 ft 263 cfs
Tue07/03 05:00 am 1.47 ft 264 cfs
Tue07/03 11:00 am 1.44 ft 257 cfs
Tue07/03 05:00 pm 1.42 ft 251 cfs
Tue07/03 11:00 pm 1.44 ft 255 cfs
Wed07/04 05:00 am 1.48 ft 266 cfs
Wed07/04 11:00 am 1.45 ft 259 cfs
Wed07/04 05:00 pm 1.42 ft 250 cfs
Wed07/04 11:00 pm 1.43 ft 253 cfs
Thu07/05 05:00 am 1.49 ft 269 cfs

Snoqualmie River flood gauge data supplied by the
National Weather Service Northwest River Forecast Center.

Sign up for Floodzilla alerts.